createdAt,value
2023-04-19T00:00:23.381Z,101052.75
2023-04-19T00:00:54.904Z,101053.72
2023-04-19T00:01:26.525Z,101054.59
2023-04-19T00:01:58.106Z,101056.38
2023-04-19T00:02:29.845Z,101044.88
2023-04-19T00:03:02.050Z,101049.25
2023-04-19T00:03:33.971Z,101050.09
2023-04-19T00:04:05.863Z,101047.66
2023-04-19T00:04:37.737Z,101046.59
2023-04-19T00:05:09.830Z,101048.38
2023-04-19T00:05:41.511Z,101049.25
2023-04-19T00:06:13.083Z,101053.72
2023-04-19T00:06:44.705Z,101047.44
2023-04-19T00:07:16.308Z,101039.44
2023-04-19T00:07:48.033Z,101039.44
2023-04-19T00:08:19.887Z,101042.94
2023-04-19T00:08:51.593Z,101045.72
2023-04-19T00:09:23.183Z,101036.78
2023-04-19T00:09:54.903Z,101043.94
2023-04-19T00:10:26.481Z,101041.25
2023-04-19T00:10:58.018Z,101037.72
2023-04-19T00:11:29.560Z,101036.78
2023-04-19T00:12:01.069Z,101041.38
2023-04-19T00:12:32.604Z,101036.88
2023-04-19T00:13:04.169Z,101043.94
2023-04-19T00:13:35.677Z,101041.38
2023-04-19T00:14:07.216Z,101048.38
2023-04-19T00:14:38.770Z,101033.28
2023-04-19T00:15:10.273Z,101037.72
2023-04-19T00:15:41.880Z,101033.28
2023-04-19T00:16:13.598Z,101041.38
2023-04-19T00:16:45.144Z,101032.41
2023-04-19T00:17:16.771Z,101031.44
2023-04-19T00:17:48.337Z,101038.59
2023-04-19T00:18:20.126Z,101034.22
2023-04-19T00:18:51.676Z,101039.44
2023-04-19T00:19:23.301Z,101037.72
2023-04-19T00:19:54.873Z,101032.41
2023-04-19T00:20:26.524Z,101031.56
2023-04-19T00:20:58.198Z,101027.06
2023-04-19T00:21:29.845Z,101035.06
2023-04-19T00:22:04.364Z,101031.44
2023-04-19T00:22:35.877Z,101036.78
2023-04-19T00:23:07.375Z,101027.06
2023-04-19T00:23:38.950Z,101028.78
2023-04-19T00:24:10.498Z,101030.72
2023-04-19T00:24:42.007Z,101031.44
2023-04-19T00:25:13.522Z,101028.78
2023-04-19T00:25:48.612Z,101030.63
2023-04-19T00:26:20.226Z,101034.22
2023-04-19T00:26:51.841Z,101025.41
2023-04-19T00:27:23.388Z,101029.75
2023-04-19T00:27:55.009Z,101035.06
2023-04-19T00:28:26.512Z,101031.56
2023-04-19T00:28:58.027Z,101026.22
2023-04-19T00:29:29.612Z,101030.72
2023-04-19T00:30:01.484Z,101031.56
2023-04-19T00:30:33.043Z,101032.41
2023-04-19T00:31:04.628Z,101034.22
2023-04-19T00:31:36.180Z,101028.06
2023-04-19T00:32:07.720Z,101031.56
2023-04-19T00:32:39.318Z,101024.53
2023-04-19T00:33:10.956Z,101030.72
2023-04-19T00:33:42.496Z,101025.41
2023-04-19T00:34:14.251Z,101028.06
2023-04-19T00:34:45.933Z,101029.00
2023-04-19T00:35:17.517Z,101021.13
2023-04-19T00:35:49.091Z,101030.72
2023-04-19T00:36:20.610Z,101023.69
2023-04-19T00:36:52.170Z,101027.19
2023-04-19T00:37:23.680Z,101024.53
2023-04-19T00:37:55.197Z,101025.28
2023-04-19T00:38:26.647Z,101027.06
2023-04-19T00:38:58.245Z,101023.47
2023-04-19T00:39:29.799Z,101035.06
2023-04-19T00:40:01.386Z,101026.13
2023-04-19T00:40:32.959Z,101031.56
2023-04-19T00:41:04.524Z,101027.06
2023-04-19T00:41:36.217Z,101021.75
2023-04-19T00:42:07.848Z,101026.22
2023-04-19T00:42:39.431Z,101025.28
2023-04-19T00:43:11.001Z,101020.06
2023-04-19T00:43:42.593Z,101016.53
2023-04-19T00:44:14.287Z,101025.41
2023-04-19T00:44:46.070Z,101026.22
2023-04-19T00:45:17.602Z,101019.97
2023-04-19T00:45:49.155Z,101021.75
2023-04-19T00:46:20.885Z,101027.06
2023-04-19T00:46:52.452Z,101027.06
2023-04-19T00:47:23.983Z,101020.91
2023-04-19T00:47:55.913Z,101031.56
2023-04-19T00:48:27.605Z,101022.63
2023-04-19T00:48:59.212Z,101027.06
2023-04-19T00:49:30.749Z,101021.75
2023-04-19T00:50:03.350Z,101021.75
2023-04-19T00:50:34.854Z,101021.75
2023-04-19T00:51:06.632Z,101020.91
2023-04-19T00:51:38.228Z,101022.72
2023-04-19T00:52:09.735Z,101014.75
2023-04-19T00:52:41.347Z,101020.91
2023-04-19T00:53:12.916Z,101020.91
2023-04-19T00:53:44.485Z,101020.06
2023-04-19T00:54:16.176Z,101020.91
2023-04-19T00:54:48.070Z,101025.41
2023-04-19T00:55:19.676Z,101025.41
2023-04-19T00:55:51.227Z,101020.91
2023-04-19T00:56:22.768Z,101020.06
2023-04-19T00:56:54.247Z,101021.75
2023-04-19T00:57:25.830Z,101018.25
2023-04-19T00:57:57.377Z,101013.88
2023-04-19T00:58:29.016Z,101018.34
2023-04-19T00:59:00.557Z,101028.06
2023-04-19T00:59:32.142Z,101022.72
2023-04-19T01:00:03.911Z,101016.41
2023-04-19T01:00:35.910Z,101026.22
2023-04-19T01:01:07.534Z,101015.56
2023-04-19T01:01:39.221Z,101019.09
2023-04-19T01:02:10.869Z,101020.06
2023-04-19T01:02:42.949Z,101022.63
2023-04-19T01:03:14.654Z,101019.97
2023-04-19T01:03:46.674Z,101016.41
2023-04-19T01:04:18.532Z,101019.09
2023-04-19T01:04:50.530Z,101019.09
2023-04-19T01:05:22.128Z,101017.28
2023-04-19T01:05:53.641Z,101019.09
2023-04-19T01:06:25.124Z,101022.63
2023-04-19T01:06:56.661Z,101011.97
2023-04-19T01:07:28.217Z,101013.75
2023-04-19T01:07:59.866Z,101013.75
2023-04-19T01:08:31.346Z,101015.47
2023-04-19T01:09:02.943Z,101014.63
2023-04-19T01:09:34.459Z,101014.63
2023-04-19T01:10:06.131Z,101012.81
2023-04-19T01:10:39.872Z,101015.56
2023-04-19T01:11:11.429Z,101011.09
2023-04-19T01:11:43.575Z,101016.31
2023-04-19T01:12:15.401Z,101012.81
2023-04-19T01:12:46.917Z,101016.31
2023-04-19T01:13:18.597Z,101010.97
2023-04-19T01:13:50.466Z,101007.47
2023-04-19T01:14:21.974Z,101011.97
2023-04-19T01:14:53.624Z,101012.81
2023-04-19T01:15:25.221Z,101015.47
2023-04-19T01:15:57.591Z,101011.81
2023-04-19T01:16:29.231Z,101009.16
2023-04-19T01:17:00.917Z,101007.47
2023-04-19T01:17:32.632Z,101007.47
2023-04-19T01:18:04.173Z,101010.97
2023-04-19T01:18:35.792Z,101006.50
2023-04-19T01:19:07.317Z,101004.81
2023-04-19T01:19:38.879Z,101003.84
2023-04-19T01:20:10.527Z,101008.31
2023-04-19T01:20:42.025Z,101003.84
2023-04-19T01:21:13.508Z,101003.84
2023-04-19T01:21:45.075Z,101008.31
2023-04-19T01:22:18.822Z,101007.38
2023-04-19T01:22:50.350Z,101005.66
2023-04-19T01:23:21.993Z,101003.84
2023-04-19T01:23:53.590Z,101003.00
2023-04-19T01:24:25.188Z,100998.50
2023-04-19T01:24:56.734Z,101008.31
2023-04-19T01:25:28.218Z,100998.50
2023-04-19T01:25:59.724Z,101003.84
2023-04-19T01:26:31.297Z,101004.72
2023-04-19T01:27:02.814Z,101003.84
2023-04-19T01:27:34.366Z,101004.72
2023-04-19T01:28:05.930Z,101003.00
2023-04-19T01:28:37.510Z,101009.16
2023-04-19T01:29:09.106Z,100998.50
2023-04-19T01:29:40.642Z,100997.66
2023-04-19T01:30:12.406Z,101003.00
2023-04-19T01:30:44.021Z,100999.50
2023-04-19T01:31:15.609Z,101004.72
2023-04-19T01:31:47.164Z,101002.16
2023-04-19T01:32:18.767Z,101010.03
2023-04-19T01:32:50.361Z,101000.31
2023-04-19T01:33:22.035Z,100998.50
2023-04-19T01:33:53.573Z,101001.16
2023-04-19T01:34:25.201Z,101003.84
2023-04-19T01:34:56.802Z,101003.84
2023-04-19T01:35:28.410Z,101004.72
2023-04-19T01:36:00.022Z,101006.50
2023-04-19T01:36:31.628Z,101009.16
2023-04-19T01:37:03.303Z,100998.50
2023-04-19T01:37:35.490Z,100999.38
2023-04-19T01:38:07.166Z,101005.56
2023-04-19T01:38:38.675Z,101003.84
2023-04-19T01:39:10.237Z,101000.22
2023-04-19T01:39:41.760Z,101002.88
2023-04-19T01:40:13.557Z,101003.84
2023-04-19T01:40:45.125Z,100999.38
2023-04-19T01:41:16.662Z,101003.84
2023-04-19T01:41:48.206Z,100998.50
2023-04-19T01:42:19.786Z,100997.66
2023-04-19T01:42:51.403Z,100996.81
2023-04-19T01:43:23.018Z,100997.66
2023-04-19T01:43:54.551Z,100993.19
2023-04-19T01:44:26.133Z,100998.50
2023-04-19T01:44:57.653Z,100998.50
2023-04-19T01:45:29.182Z,100994.06
2023-04-19T01:46:00.735Z,100995.84
2023-04-19T01:46:32.360Z,100993.19
2023-04-19T01:47:04.698Z,100995.84
2023-04-19T01:47:36.501Z,100993.19
2023-04-19T01:48:08.202Z,101001.16
2023-04-19T01:48:40.001Z,100992.34
2023-04-19T01:49:11.588Z,100998.50
2023-04-19T01:49:43.111Z,100993.19
2023-04-19T01:50:14.700Z,100998.50
2023-04-19T01:50:46.205Z,100994.06
2023-04-19T01:51:17.717Z,100999.38
2023-04-19T01:51:49.329Z,100997.66
2023-04-19T01:52:20.861Z,101000.22
2023-04-19T01:52:52.486Z,100998.50
2023-04-19T01:53:24.044Z,101003.00
2023-04-19T01:53:55.597Z,101005.56
2023-04-19T01:54:27.190Z,101003.84
2023-04-19T01:54:58.797Z,100997.66
2023-04-19T01:55:30.358Z,101003.00
2023-04-19T01:56:01.855Z,100997.66
2023-04-19T01:56:33.366Z,101000.22
2023-04-19T01:57:05.002Z,100995.84
2023-04-19T01:57:36.615Z,100997.56
2023-04-19T01:58:08.175Z,100992.34
2023-04-19T01:58:39.669Z,101002.88
2023-04-19T01:59:11.278Z,100996.72
2023-04-19T01:59:42.821Z,100992.34
2023-04-19T02:00:14.564Z,100997.66
2023-04-19T02:00:46.182Z,101000.22
2023-04-19T02:01:17.943Z,100998.50
2023-04-19T02:01:49.528Z,101002.03
2023-04-19T02:02:21.331Z,100990.50
2023-04-19T02:02:53.281Z,100999.38
2023-04-19T02:03:25.139Z,100999.38
2023-04-19T02:03:57.253Z,100995.84
2023-04-19T02:04:28.899Z,100994.06
2023-04-19T02:05:00.492Z,100994.06
2023-04-19T02:05:31.988Z,100998.50
2023-04-19T02:06:03.620Z,100997.56
2023-04-19T02:06:35.207Z,100997.56
2023-04-19T02:07:06.724Z,100994.06
2023-04-19T02:07:38.375Z,100995.72
2023-04-19T02:08:09.938Z,100994.91
2023-04-19T02:08:44.439Z,100994.91
2023-04-19T02:09:16.018Z,100989.56
2023-04-19T02:09:47.642Z,100993.06
2023-04-19T02:10:19.161Z,100996.59
2023-04-19T02:10:50.681Z,100993.94
2023-04-19T02:11:22.196Z,100997.56
2023-04-19T02:11:53.667Z,101002.88
2023-04-19T02:12:26.473Z,100997.44
2023-04-19T02:12:58.030Z,100991.28
2023-04-19T02:13:29.648Z,100993.94
2023-04-19T02:14:01.220Z,100993.94
2023-04-19T02:14:32.762Z,100988.72
2023-04-19T02:15:04.566Z,100994.91
2023-04-19T02:15:36.943Z,100984.25
2023-04-19T02:16:08.572Z,100994.91
2023-04-19T02:16:40.162Z,100993.06
2023-04-19T02:17:11.721Z,100994.06
2023-04-19T02:17:43.276Z,100986.91
2023-04-19T02:18:14.790Z,100993.94
2023-04-19T02:18:46.376Z,100991.28
2023-04-19T02:19:17.879Z,100990.41
2023-04-19T02:19:49.399Z,100993.06
2023-04-19T02:20:20.939Z,100992.13
2023-04-19T02:20:52.512Z,100993.19
2023-04-19T02:21:24.104Z,100993.94
2023-04-19T02:21:55.619Z,100994.06
2023-04-19T02:22:27.166Z,100994.91
2023-04-19T02:22:58.680Z,100990.41
2023-04-19T02:23:30.267Z,100988.72
2023-04-19T02:24:01.914Z,100988.63
2023-04-19T02:24:33.483Z,100995.72
2023-04-19T02:25:05.197Z,100991.28
2023-04-19T02:25:36.798Z,100991.28
2023-04-19T02:26:08.325Z,100980.63
2023-04-19T02:26:39.948Z,100994.78
2023-04-19T02:27:14.257Z,100992.13
2023-04-19T02:27:45.777Z,100988.63
2023-04-19T02:28:17.370Z,100989.47
2023-04-19T02:28:50.472Z,100991.28
2023-04-19T02:29:22.056Z,100990.28
2023-04-19T02:29:53.560Z,100980.50
2023-04-19T02:30:25.156Z,100993.94
2023-04-19T02:30:56.677Z,100995.63
2023-04-19T02:31:28.203Z,100988.63
2023-04-19T02:31:59.821Z,100989.47
2023-04-19T02:32:31.422Z,100992.97
2023-04-19T02:33:03.046Z,100992.97
2023-04-19T02:33:34.618Z,100992.97
2023-04-19T02:34:06.195Z,100993.94
2023-04-19T02:34:37.701Z,100982.31
2023-04-19T02:35:09.285Z,100984.97
2023-04-19T02:35:40.823Z,100982.31
2023-04-19T02:36:12.536Z,100998.28
2023-04-19T02:36:44.161Z,100990.28
2023-04-19T02:37:15.798Z,100989.34
2023-04-19T02:37:47.344Z,100994.66
2023-04-19T02:38:18.867Z,100984.13
2023-04-19T02:38:50.396Z,100984.13
2023-04-19T02:39:21.931Z,100987.63
2023-04-19T02:39:53.462Z,100993.94
2023-04-19T02:40:24.973Z,100992.97
2023-04-19T02:40:56.495Z,100997.44
2023-04-19T02:41:28.050Z,100983.19
2023-04-19T02:41:59.565Z,100991.16
2023-04-19T02:42:31.097Z,100984.97
2023-04-19T02:43:03.506Z,100991.16
2023-04-19T02:43:35.120Z,100989.47
2023-04-19T02:44:06.672Z,100992.97
2023-04-19T02:44:38.285Z,100984.97
2023-04-19T02:45:09.853Z,100991.28
2023-04-19T02:45:41.434Z,100992.97
2023-04-19T02:46:13.175Z,100990.28
2023-04-19T02:46:52.780Z,100993.84
2023-04-19T02:47:24.359Z,100992.97
2023-04-19T02:47:55.901Z,100987.63
2023-04-19T02:48:27.419Z,100992.97
2023-04-19T02:49:00.573Z,100984.00
2023-04-19T02:49:32.100Z,100987.63
2023-04-19T02:50:03.714Z,100990.28
2023-04-19T02:50:36.833Z,100984.13
2023-04-19T02:51:08.440Z,100992.97
2023-04-19T02:51:39.956Z,100997.44
2023-04-19T02:52:11.493Z,100980.50
2023-04-19T02:52:43.044Z,100984.97
2023-04-19T02:53:17.580Z,100992.97
2023-04-19T02:53:49.070Z,100990.19
2023-04-19T02:54:20.648Z,100985.84
2023-04-19T02:54:52.133Z,100981.34
2023-04-19T02:55:23.741Z,100983.28
2023-04-19T02:55:55.208Z,100992.00
2023-04-19T02:56:26.815Z,100982.31
2023-04-19T02:56:58.355Z,100987.63
2023-04-19T02:57:30.126Z,100990.28
2023-04-19T02:58:01.720Z,100984.97
2023-04-19T02:58:33.298Z,100992.97
2023-04-19T02:59:04.863Z,100983.19
2023-04-19T02:59:36.483Z,100990.41
2023-04-19T03:00:08.434Z,100990.41
2023-04-19T03:00:39.895Z,100992.13
2023-04-19T03:01:11.398Z,100980.63
2023-04-19T03:01:42.987Z,100991.28
2023-04-19T03:02:14.575Z,100991.28
2023-04-19T03:02:46.188Z,100990.41
2023-04-19T03:03:17.740Z,100993.06
2023-04-19T03:03:49.399Z,100992.22
2023-04-19T03:04:21.095Z,100990.50
2023-04-19T03:04:52.821Z,100988.72
2023-04-19T03:05:24.395Z,100988.72
2023-04-19T03:05:56.003Z,100991.38
2023-04-19T03:06:27.559Z,100986.06
2023-04-19T03:06:59.080Z,100990.50
2023-04-19T03:07:30.664Z,100995.84
2023-04-19T03:08:02.200Z,100989.69
2023-04-19T03:08:33.819Z,100988.72
2023-04-19T03:09:05.375Z,100991.50
2023-04-19T03:09:36.909Z,100995.97
2023-04-19T03:10:08.857Z,100995.00
2023-04-19T03:10:40.395Z,100987.84
2023-04-19T03:11:12.108Z,100989.69
2023-04-19T03:11:43.588Z,100991.50
2023-04-19T03:12:15.076Z,100985.34
2023-04-19T03:12:46.636Z,100980.72
2023-04-19T03:13:18.273Z,100986.16
2023-04-19T03:13:49.825Z,100977.19
2023-04-19T03:14:21.312Z,100986.16
2023-04-19T03:14:52.938Z,100985.19
2023-04-19T03:15:24.448Z,100977.19
2023-04-19T03:15:56.030Z,100977.19
2023-04-19T03:16:27.687Z,100980.84
2023-04-19T03:16:59.298Z,100979.13
2023-04-19T03:17:30.901Z,100981.78
2023-04-19T03:18:02.555Z,100977.19
2023-04-19T03:18:34.290Z,100978.19
2023-04-19T03:19:05.822Z,100972.84
2023-04-19T03:19:37.416Z,100982.66
2023-04-19T03:20:09.202Z,100982.66
2023-04-19T03:20:40.760Z,100976.47
2023-04-19T03:21:12.366Z,100975.50
2023-04-19T03:21:43.874Z,100974.69
2023-04-19T03:22:15.489Z,100977.34
2023-04-19T03:22:46.946Z,100969.34
2023-04-19T03:23:18.565Z,100975.50
2023-04-19T03:23:50.131Z,100975.50
2023-04-19T03:24:28.085Z,100976.34
2023-04-19T03:24:59.630Z,100968.47
2023-04-19T03:25:31.266Z,100973.81
2023-04-19T03:26:02.770Z,100975.50
2023-04-19T03:26:34.292Z,100974.69
2023-04-19T03:27:05.825Z,100972.00
2023-04-19T03:27:37.438Z,100969.34
2023-04-19T03:28:08.975Z,100972.00
2023-04-19T03:28:40.568Z,100978.19
2023-04-19T03:29:13.168Z,100965.81
2023-04-19T03:29:45.030Z,100970.19
2023-04-19T03:30:17.442Z,100964.03
2023-04-19T03:30:49.006Z,100973.81
2023-04-19T03:31:20.533Z,100973.81
2023-04-19T03:31:52.177Z,100969.34
2023-04-19T03:32:23.751Z,100969.34
2023-04-19T03:32:55.294Z,100971.13
2023-04-19T03:33:26.828Z,100969.47
2023-04-19T03:33:58.355Z,100965.81
2023-04-19T03:34:29.943Z,100971.13
2023-04-19T03:35:01.462Z,100968.47
2023-04-19T03:35:32.973Z,100970.19
2023-04-19T03:36:04.752Z,100969.34
2023-04-19T03:36:36.287Z,100964.88
2023-04-19T03:37:07.820Z,100958.81
2023-04-19T03:37:39.370Z,100965.69
2023-04-19T03:38:10.852Z,100966.69
2023-04-19T03:38:42.488Z,100968.47
2023-04-19T03:39:14.030Z,100958.69
2023-04-19T03:39:45.506Z,100963.16
2023-04-19T03:40:17.052Z,100958.69
2023-04-19T03:40:48.597Z,100961.47
2023-04-19T03:41:20.142Z,100956.03
2023-04-19T03:41:51.626Z,100962.31
2023-04-19T03:42:23.108Z,100964.97
2023-04-19T03:42:54.647Z,100964.03
2023-04-19T03:43:26.139Z,100964.03
2023-04-19T03:43:57.681Z,100958.69
2023-04-19T03:44:31.503Z,100956.88
2023-04-19T03:45:03.180Z,100957.81
2023-04-19T03:45:34.726Z,100962.31
2023-04-19T03:46:06.332Z,100955.16
2023-04-19T03:46:38.089Z,100957.81
2023-04-19T03:47:09.697Z,100958.69
2023-04-19T03:47:41.231Z,100963.16
2023-04-19T03:48:12.816Z,100964.03
2023-04-19T03:48:44.324Z,100961.47
2023-04-19T03:49:15.892Z,100960.47
2023-04-19T03:49:47.459Z,100963.16
2023-04-19T03:50:18.993Z,100967.63
2023-04-19T03:50:50.503Z,100963.16
2023-04-19T03:51:22.088Z,100964.88
2023-04-19T03:51:53.694Z,100966.69
2023-04-19T03:52:25.215Z,100963.16
2023-04-19T03:52:56.778Z,100958.69
2023-04-19T03:53:28.313Z,100970.19
2023-04-19T03:54:00.238Z,100959.53
2023-04-19T03:54:31.799Z,100961.47
2023-04-19T03:55:03.463Z,100961.47
2023-04-19T03:55:35.002Z,100962.31
2023-04-19T03:56:06.590Z,100964.03
2023-04-19T03:56:38.128Z,100962.31
2023-04-19T03:57:10.710Z,100964.03
2023-04-19T03:57:42.271Z,100960.47
2023-04-19T03:58:13.795Z,100968.47
2023-04-19T03:58:45.389Z,100963.16
2023-04-19T03:59:17.116Z,100960.47
2023-04-19T03:59:48.754Z,100959.53
2023-04-19T04:00:20.517Z,100957.81
2023-04-19T04:00:52.117Z,100958.69
2023-04-19T04:01:23.756Z,100961.34
2023-04-19T04:01:55.908Z,100963.16
2023-04-19T04:02:27.817Z,100956.03
2023-04-19T04:02:59.758Z,100961.34
2023-04-19T04:03:31.671Z,100954.22
2023-04-19T04:04:12.868Z,100959.53
2023-04-19T04:04:44.669Z,100963.03
2023-04-19T04:05:16.503Z,100954.22
2023-04-19T04:05:48.285Z,100956.88
2023-04-19T04:06:19.854Z,100953.38
2023-04-19T04:06:51.381Z,100964.88
2023-04-19T04:07:22.926Z,100958.69
2023-04-19T04:07:54.522Z,100963.25
2023-04-19T04:08:26.090Z,100956.97
2023-04-19T04:09:30.130Z,100963.16
2023-04-19T04:10:01.446Z,100956.97
2023-04-19T04:10:32.846Z,100967.53
2023-04-19T04:11:04.190Z,100962.19
2023-04-19T04:11:35.529Z,100968.47
2023-04-19T04:12:06.914Z,100967.53
2023-04-19T04:12:38.296Z,100970.19
2023-04-19T04:13:09.636Z,100963.16
2023-04-19T04:13:41.031Z,100961.34
2023-04-19T04:14:12.396Z,100970.19
2023-04-19T04:14:43.779Z,100972.00
2023-04-19T04:15:15.164Z,100967.53
2023-04-19T04:15:46.517Z,100970.28
2023-04-19T04:16:17.906Z,100970.19
2023-04-19T04:16:49.521Z,100969.34
2023-04-19T04:17:21.123Z,100967.53
2023-04-19T04:17:52.537Z,100971.03
2023-04-19T04:18:23.920Z,100968.47
2023-04-19T04:18:55.242Z,100970.19
2023-04-19T04:19:26.598Z,100976.34
2023-04-19T04:19:57.928Z,100960.47
2023-04-19T04:20:29.286Z,100969.34
2023-04-19T04:21:00.613Z,100964.03
2023-04-19T04:21:31.929Z,100967.53
2023-04-19T04:22:03.579Z,100968.47
2023-04-19T04:22:34.961Z,100975.50
2023-04-19T04:23:06.246Z,100972.84
2023-04-19T04:23:37.649Z,100973.81
2023-04-19T04:24:08.966Z,100970.19
2023-04-19T04:24:40.482Z,100961.47
2023-04-19T04:25:11.864Z,100969.47
2023-04-19T04:25:43.198Z,100968.47
2023-04-19T04:26:14.631Z,100967.63
2023-04-19T04:26:46.042Z,100968.47
2023-04-19T04:27:17.420Z,100973.81
2023-04-19T04:27:50.515Z,100971.13
2023-04-19T04:28:21.933Z,100975.63
2023-04-19T04:28:53.319Z,100967.63
2023-04-19T04:29:24.626Z,100965.91
2023-04-19T04:29:56.348Z,100972.84
2023-04-19T04:30:28.044Z,100970.19
2023-04-19T04:30:59.455Z,100976.47
2023-04-19T04:31:30.809Z,100973.81
2023-04-19T04:32:02.895Z,100972.84
2023-04-19T04:32:34.464Z,100970.19
2023-04-19T04:33:05.848Z,100970.28
2023-04-19T04:33:37.285Z,100966.69
2023-04-19T04:34:08.695Z,100978.19
2023-04-19T04:34:40.047Z,100974.69
2023-04-19T04:35:11.457Z,100970.19
2023-04-19T04:35:42.812Z,100975.50
2023-04-19T04:36:14.119Z,100973.69
2023-04-19T04:36:45.497Z,100978.19
2023-04-19T04:37:16.798Z,100985.34
2023-04-19T04:37:48.185Z,100978.19
2023-04-19T04:38:24.648Z,100970.19
2023-04-19T04:38:56.516Z,100981.91
2023-04-19T04:39:28.652Z,100979.13
2023-04-19T04:40:00.262Z,100984.56
2023-04-19T04:40:31.654Z,100983.63
2023-04-19T04:41:02.996Z,100973.81
2023-04-19T04:41:34.321Z,100979.13
2023-04-19T04:42:06.148Z,100981.06
2023-04-19T04:42:37.483Z,100975.63
2023-04-19T04:43:08.917Z,100980.94
2023-04-19T04:43:40.283Z,100982.78
2023-04-19T04:44:23.002Z,100980.94
2023-04-19T04:44:54.511Z,100976.47
2023-04-19T04:45:25.960Z,100984.47
2023-04-19T04:45:57.413Z,100987.22
2023-04-19T04:46:28.810Z,100982.78
2023-04-19T04:47:00.142Z,100985.44
2023-04-19T04:47:32.005Z,100976.47
2023-04-19T04:48:03.498Z,100984.34
2023-04-19T04:48:34.821Z,100973.81
2023-04-19T04:49:06.189Z,100986.16
2023-04-19T04:49:37.537Z,100978.19
2023-04-19T04:50:09.066Z,100986.16
2023-04-19T04:50:40.448Z,100978.28
2023-04-19T04:51:11.826Z,100980.00
2023-04-19T04:51:43.150Z,100980.13
2023-04-19T04:52:14.475Z,100985.34
2023-04-19T04:52:45.748Z,100985.34
2023-04-19T04:53:17.044Z,100982.78
2023-04-19T04:53:48.396Z,100983.63
2023-04-19T04:54:19.810Z,100988.94
2023-04-19T04:54:51.474Z,100984.47
2023-04-19T04:55:22.894Z,100987.13
2023-04-19T04:55:54.269Z,100980.94
2023-04-19T04:56:25.626Z,100984.47
2023-04-19T04:56:57.047Z,100988.09
2023-04-19T04:57:28.406Z,100987.22
2023-04-19T04:57:59.739Z,100993.44
2023-04-19T04:58:31.142Z,100991.50
2023-04-19T04:59:02.518Z,100989.78
2023-04-19T04:59:33.847Z,100990.75
2023-04-19T05:00:05.453Z,100991.72
2023-04-19T05:00:36.844Z,100989.91
2023-04-19T05:01:08.244Z,100992.44
2023-04-19T05:01:39.665Z,100987.34
2023-04-19T05:02:11.121Z,100991.72
2023-04-19T05:02:42.508Z,100986.38
2023-04-19T05:03:14.031Z,100990.88
2023-04-19T05:03:45.658Z,100988.94
2023-04-19T05:04:17.198Z,100996.09
2023-04-19T05:04:48.953Z,100986.28
2023-04-19T05:05:20.579Z,100992.66
2023-04-19T05:05:51.917Z,100992.56
2023-04-19T05:06:23.331Z,100993.44
2023-04-19T05:06:54.678Z,100991.72
2023-04-19T05:07:26.058Z,100992.56
2023-04-19T05:07:57.475Z,100993.44
2023-04-19T05:08:28.824Z,100989.91
2023-04-19T05:09:00.164Z,101000.44
2023-04-19T05:09:31.507Z,100991.59
2023-04-19T05:10:02.870Z,100986.28
2023-04-19T05:10:34.319Z,100985.44
2023-04-19T05:11:05.681Z,100982.88
2023-04-19T05:11:37.029Z,100988.09
2023-04-19T05:12:08.359Z,100990.75
2023-04-19T05:12:39.712Z,100995.13
2023-04-19T05:13:11.063Z,100983.63
2023-04-19T05:13:42.424Z,100987.13
2023-04-19T05:14:13.999Z,100989.78
2023-04-19T05:14:45.436Z,100989.78
2023-04-19T05:15:16.848Z,100989.78
2023-04-19T05:15:48.227Z,100995.13
2023-04-19T05:16:19.823Z,100990.75
2023-04-19T05:16:51.272Z,100995.31
2023-04-19T05:17:22.757Z,100991.72
2023-04-19T05:17:54.157Z,100989.91
2023-04-19T05:18:25.569Z,100989.78
2023-04-19T05:18:56.938Z,100989.91
2023-04-19T05:19:28.434Z,100995.13
2023-04-19T05:19:59.835Z,100993.31
2023-04-19T05:20:31.246Z,100995.13
2023-04-19T05:21:02.592Z,100991.72
2023-04-19T05:21:34.150Z,100997.78
2023-04-19T05:22:05.515Z,100992.44
2023-04-19T05:22:36.814Z,100995.97
2023-04-19T05:23:08.213Z,100997.78
2023-04-19T05:23:39.561Z,100989.78
2023-04-19T05:24:11.023Z,100994.28
2023-04-19T05:24:42.602Z,100998.75
2023-04-19T05:25:14.007Z,100996.94
2023-04-19T05:25:45.328Z,101000.44
2023-04-19T05:26:16.637Z,100996.09
2023-04-19T05:26:48.034Z,100993.44
2023-04-19T05:27:19.348Z,100999.59
2023-04-19T05:27:50.699Z,100998.75
2023-04-19T05:28:22.148Z,100998.75
2023-04-19T05:28:53.518Z,101005.75
2023-04-19T05:29:24.858Z,100995.13
2023-04-19T05:29:56.182Z,101004.09
2023-04-19T05:30:27.484Z,100996.09
2023-04-19T05:30:58.859Z,101001.41
2023-04-19T05:31:30.350Z,100993.44
2023-04-19T05:32:01.729Z,100996.94
2023-04-19T05:32:33.133Z,100992.56
2023-04-19T05:33:04.752Z,101000.66
2023-04-19T05:33:36.160Z,100991.72
2023-04-19T05:34:07.549Z,100998.75
2023-04-19T05:34:38.878Z,101004.09
2023-04-19T05:35:10.281Z,100988.94
2023-04-19T05:35:41.649Z,100991.50
2023-04-19T05:36:12.990Z,100990.75
2023-04-19T05:36:44.323Z,100996.09
2023-04-19T05:37:15.694Z,101000.44
2023-04-19T05:37:47.025Z,100997.78
2023-04-19T05:38:18.382Z,100992.56
2023-04-19T05:38:49.754Z,100995.31
2023-04-19T05:39:21.084Z,100994.38
2023-04-19T05:39:52.470Z,100990.00
2023-04-19T05:40:23.880Z,100988.22
2023-04-19T05:40:55.231Z,100993.44
2023-04-19T05:41:26.550Z,100992.56
2023-04-19T05:41:57.975Z,100993.44
2023-04-19T05:42:29.314Z,100987.22
2023-04-19T05:43:00.665Z,100988.09
2023-04-19T05:43:32.013Z,100991.59
2023-04-19T05:44:03.377Z,100989.78
2023-04-19T05:44:34.704Z,100986.16
2023-04-19T05:45:06.412Z,100990.66
2023-04-19T05:45:37.749Z,100991.72
2023-04-19T05:46:09.186Z,100991.59
2023-04-19T05:46:40.567Z,100988.94
2023-04-19T05:47:11.926Z,100988.94
2023-04-19T05:47:43.420Z,100992.44
2023-04-19T05:48:14.802Z,100993.44
2023-04-19T05:48:46.179Z,100985.44
2023-04-19T05:49:17.604Z,100990.75
2023-04-19T05:49:48.996Z,100995.13
2023-04-19T05:50:20.343Z,100993.44
2023-04-19T05:50:51.705Z,100990.66
2023-04-19T05:51:23.029Z,100988.00
2023-04-19T05:51:54.438Z,100989.06
2023-04-19T05:52:25.818Z,100985.56
2023-04-19T05:52:57.194Z,100987.22
2023-04-19T05:53:28.520Z,100988.09
2023-04-19T05:54:00.300Z,100981.28
2023-04-19T05:54:31.745Z,100989.16
2023-04-19T05:55:03.229Z,100990.88
2023-04-19T05:55:34.580Z,100991.72
2023-04-19T05:56:05.993Z,100985.56
2023-04-19T05:56:37.362Z,100986.38
2023-04-19T05:57:08.726Z,100991.72
2023-04-19T05:57:40.096Z,100986.38
2023-04-19T05:58:11.510Z,100989.91
2023-04-19T05:58:42.944Z,100985.56
2023-04-19T05:59:14.272Z,100991.72
2023-04-19T05:59:45.674Z,100987.13
2023-04-19T06:00:17.196Z,100976.47
2023-04-19T06:00:48.521Z,100988.09
2023-04-19T06:01:19.895Z,100989.06
2023-04-19T06:01:51.299Z,100988.22